Time;durP1;ratioP1;P1;durP2;ratioP2;P2;SDS_P1;SDS_P2;PMS_P1;PMS_P2;Temp;Humidity;BMP_temperature;BMP_pressure;BME280_temperature;BME280_humidity;BME280_pressure;Samples;Min_cycle;Max_cycle;Signal;HPM_P1;HPM_P2
2023/12/19 00:01:10;;;;;;;7.73;3.20;;;2.10;84.30;;;;;;6269572;28;20201;-62
2023/12/19 00:04:12;;;;;;;5.73;3.23;;;;;;;;;;6277785;28;20219;-62
2023/12/19 00:07:13;;;;;;;5.87;3.13;;;;;;;;;;6284875;28;20216;-62
2023/12/19 00:10:15;;;;;;;4.60;3.30;;;;;;;;;;6277584;28;20194;-63
2023/12/19 00:13:16;;;;;;;3.27;2.83;;;;;;;;;;6294819;28;20199;-63
2023/12/19 00:16:17;;;;;;;6.03;3.40;;;;;;;;;;6307756;28;20192;-62
2023/12/19 00:19:18;;;;;;;5.13;3.40;;;;;;;;;;6292112;28;20181;-62
2023/12/19 00:22:19;;;;;;;6.60;2.70;;;;;;;;;;6277680;28;20196;-62
2023/12/19 00:25:23;;;;;;;4.17;2.97;;;;;;;;;;6287411;28;20195;-62
2023/12/19 00:28:24;;;;;;;4.07;3.17;;;;;;;;;;6281279;28;20207;-62
2023/12/19 00:31:26;;;;;;;4.50;3.43;;;;;;;;;;6308006;28;20203;-62
2023/12/19 00:34:27;;;;;;;5.60;3.33;;;;;;;;;;6276494;28;20177;-62
2023/12/19 00:37:28;;;;;;;4.07;3.27;;;;;;;;;;6304674;28;20196;-62
2023/12/19 00:40:29;;;;;;;3.97;2.87;;;;;;;;;;6279363;28;20188;-62
2023/12/19 00:43:30;;;;;;;3.70;2.57;;;;;;;;;;6289044;28;20192;-63
2023/12/19 00:46:31;;;;;;;3.97;2.83;;;;;;;;;;6294669;28;20235;-62
2023/12/19 00:49:32;;;;;;;4.13;2.97;;;;;;;;;;6291476;28;20196;-62
2023/12/19 00:52:33;;;;;;;4.70;3.33;;;;;;;;;;6284216;28;20188;-62
2023/12/19 00:55:34;;;;;;;5.17;3.23;;;;;;;;;;6297004;28;20187;-62
2023/12/19 00:58:36;;;;;;;3.90;3.07;;;;;;;;;;6285654;28;20196;-62
2023/12/19 01:01:37;;;;;;;3.83;3.20;;;;;;;;;;6314019;28;20216;-62
2023/12/19 01:04:38;;;;;;;4.77;3.47;;;;;;;;;;6306438;28;20196;-63
2023/12/19 01:07:39;;;;;;;4.30;2.90;;;;;;;;;;6282915;28;20213;-62
2023/12/19 01:10:41;;;;;;;3.27;2.60;;;;;;;;;;6276971;28;20184;-62
2023/12/19 01:13:42;;;;;;;4.30;3.23;;;;;;;;;;6283887;28;20192;-63
2023/12/19 01:16:43;;;;;;;5.60;3.27;;;;;;;;;;6292422;28;20227;-63
2023/12/19 01:19:44;;;;;;;4.40;2.80;;;;;;;;;;6302252;28;20212;-63
2023/12/19 01:22:45;;;;;;;5.30;2.77;;;;;;;;;;6281980;28;20210;-63
2023/12/19 01:25:46;;;;;;;6.13;2.70;;;;;;;;;;6283015;28;20193;-63
2023/12/19 01:28:47;;;;;;;6.13;3.17;;;;;;;;;;6291455;28;20230;-63
2023/12/19 01:31:48;;;;;;;3.90;2.83;;;;;;;;;;6289049;28;20275;-63
2023/12/19 01:34:49;;;;;;;3.43;3.10;;;;;;;;;;6284277;28;20278;-63
2023/12/19 01:37:50;;;;;;;3.07;2.73;;;;;;;;;;6288143;28;20272;-63
2023/12/19 01:40:53;;;;;;;3.37;2.70;;;;;;;;;;6289742;28;20185;-63
2023/12/19 01:44:00;;;;;;;5.43;3.30;;;;;;;;;;6309233;28;20196;-63
2023/12/19 01:47:01;;;;;;;3.13;2.73;;;;;;;;;;6321560;28;20213;-63
2023/12/19 01:50:02;;;;;;;4.40;2.90;;;;;;;;;;6286074;28;20188;-63
2023/12/19 01:53:03;;;;;;;5.00;2.80;;;;;;;;;;6291308;28;20192;-63
2023/12/19 01:56:05;;;;;;;3.60;3.03;;;;;;;;;;6289510;28;20189;-63
2023/12/19 01:59:06;;;;;;;3.93;2.60;;;;;;;;;;6286373;28;20204;-63
2023/12/19 02:02:07;;;;;;;4.17;2.87;;;;;;;;;;6274849;28;20241;-63
2023/12/19 02:05:08;;;;;;;4.33;3.00;;;;;;;;;;6291269;28;20197;-63
2023/12/19 02:08:09;;;;;;;5.00;2.97;;;;;;;;;;6322664;28;20208;-63
2023/12/19 02:11:11;;;;;;;4.17;2.93;;;;;;;;;;6296675;28;20181;-63
2023/12/19 02:14:12;;;;;;;4.60;2.87;;;;;;;;;;6307310;28;20212;-63
2023/12/19 02:17:14;;;;;;;6.97;3.03;;;;;;;;;;6298670;28;20207;-63
2023/12/19 02:20:15;;;;;;;2.87;2.63;;;2.10;83.60;;;;;;6287057;28;20189;-63
2023/12/19 02:23:16;;;;;;;3.43;2.63;;;1.80;83.80;;;;;;6302714;28;20187;-63
2023/12/19 02:26:17;;;;;;;3.70;2.73;;;1.70;83.40;;;;;;6307502;28;20291;-63
2023/12/19 02:29:17;;;;;;;5.53;2.63;;;1.70;83.70;;;;;;6270295;28;20189;-63
2023/12/19 02:32:18;;;;;;;3.90;3.30;;;1.70;83.80;;;;;;6291350;28;20241;-62
2023/12/19 02:35:19;;;;;;;5.73;2.60;;;1.70;84.10;;;;;;6270412;28;20197;-62
2023/12/19 02:38:19;;;;;;;4.27;3.30;;;1.70;83.40;;;;;;6278660;28;20195;-62
2023/12/19 02:41:20;;;;;;;4.10;2.93;;;1.70;84.00;;;;;;6269267;28;20232;-62
2023/12/19 02:44:21;;;;;;;4.03;2.50;;;1.70;84.20;;;;;;6272000;28;20255;-62
2023/12/19 02:47:21;;;;;;;3.87;2.87;;;1.70;83.90;;;;;;6266733;28;20216;-62
2023/12/19 02:50:22;;;;;;;3.80;2.53;;;1.70;83.90;;;;;;6268034;28;20191;-62
2023/12/19 02:53:23;;;;;;;6.37;3.10;;;1.70;83.70;;;;;;6255537;28;20199;-62
2023/12/19 02:56:24;;;;;;;5.07;3.00;;;1.70;83.20;;;;;;6301327;28;20200;-62
2023/12/19 02:59:25;;;;;;;3.10;2.53;;;1.70;83.60;;;;;;6320047;28;20183;-61
2023/12/19 03:02:25;;;;;;;4.73;2.60;;;1.70;83.70;;;;;;6289450;28;20191;-62
2023/12/19 03:05:26;;;;;;;5.97;3.30;;;1.60;83.60;;;;;;6313086;28;20192;-63
2023/12/19 03:08:27;;;;;;;3.03;2.50;;;;;;;;;;6293936;28;20670;-63
2023/12/19 03:11:28;;;;;;;4.90;2.90;;;;;;;;;;6302426;28;20216;-63
2023/12/19 03:14:30;;;;;;;5.53;3.03;;;;;;;;;;6269241;28;20192;-63
2023/12/19 03:17:31;;;;;;;3.73;2.70;;;;;;;;;;6302239;28;21491;-63
2023/12/19 03:20:32;;;;;;;3.50;2.67;;;;;;;;;;6283646;28;20189;-63
2023/12/19 03:23:33;;;;;;;4.83;3.13;;;;;;;;;;6278256;28;20191;-63
2023/12/19 03:26:35;;;;;;;4.03;2.97;;;;;;;;;;6274173;28;20216;-63
2023/12/19 03:29:36;;;;;;;3.60;2.73;;;;;;;;;;6285953;28;20623;-63
2023/12/19 03:32:37;;;;;;;3.80;2.67;;;;;;;;;;6278865;28;20337;-63
2023/12/19 03:35:38;;;;;;;5.07;3.40;;;;;;;;;;6286387;28;20184;-63
2023/12/19 03:38:39;;;;;;;3.30;2.77;;;;;;;;;;6277290;28;20197;-63
2023/12/19 03:41:40;;;;;;;4.80;3.07;;;;;;;;;;6301222;28;20188;-63
2023/12/19 03:44:41;;;;;;;3.27;2.50;;;;;;;;;;6303898;28;20236;-63
2023/12/19 03:47:42;;;;;;;4.93;3.03;;;;;;;;;;6271683;28;20216;-63
2023/12/19 03:50:43;;;;;;;4.47;2.97;;;1.60;83.40;;;;;;6296269;28;20188;-63
2023/12/19 03:53:44;;;;;;;5.07;3.07;;;1.40;83.90;;;;;;6283743;28;20195;-63
2023/12/19 03:56:44;;;;;;;4.37;2.90;;;1.40;84.70;;;;;;6260985;28;20279;-63
2023/12/19 03:59:45;;;;;;;3.63;3.10;;;1.40;84.50;;;;;;6252531;28;20196;-63
2023/12/19 04:02:46;;;;;;;4.63;2.80;;;1.40;84.70;;;;;;6258710;28;20212;-63
2023/12/19 04:05:47;;;;;;;5.47;2.90;;;1.40;84.20;;;;;;6250409;28;20205;-63
2023/12/19 04:08:47;;;;;;;5.37;3.77;;;1.40;83.40;;;;;;6264942;28;20208;-63
2023/12/19 04:11:48;;;;;;;3.70;2.93;;;1.40;84.50;;;;;;6251467;28;20304;-63
2023/12/19 04:14:49;;;;;;;4.53;2.80;;;1.40;84.40;;;;;;6263811;28;20181;-63
2023/12/19 04:17:50;;;;;;;3.53;3.00;;;1.40;84.90;;;;;;6254836;28;20287;-63
2023/12/19 04:20:50;;;;;;;3.77;2.77;;;1.40;84.50;;;;;;6263721;28;20276;-63
2023/12/19 04:23:51;;;;;;;5.47;3.73;;;1.40;83.80;;;;;;6282424;28;20258;-63
2023/12/19 04:26:52;;;;;;;4.37;3.23;;;1.40;84.40;;;;;;6290811;28;20209;-63
2023/12/19 04:29:55;;;;;;;4.00;3.23;;;1.50;84.70;;;;;;6276958;28;20189;-63
2023/12/19 04:32:56;;;;;;;4.80;3.30;;;1.50;84.40;;;;;;6270642;28;20197;-63
2023/12/19 04:35:57;;;;;;;4.73;3.30;;;1.50;84.30;;;;;;6271573;28;20245;-63
2023/12/19 04:38:58;;;;;;;4.60;3.00;;;1.50;83.70;;;;;;6284370;28;20192;-63
2023/12/19 04:42:01;;;;;;;4.77;3.17;;;1.50;83.70;;;;;;6324750;28;20188;-63
2023/12/19 04:45:02;;;;;;;5.57;3.27;;;1.40;83.90;;;;;;6261611;28;20250;-63
2023/12/19 04:48:03;;;;;;;3.97;2.93;;;1.40;83.90;;;;;;6261777;28;20216;-63
2023/12/19 04:51:04;;;;;;;3.67;2.60;;;1.50;84.50;;;;;;6271640;28;20242;-63
2023/12/19 04:54:07;;;;;;;4.40;2.90;;;1.50;84.40;;;;;;6292433;28;20191;-63
2023/12/19 04:57:08;;;;;;;4.43;3.07;;;1.50;84.30;;;;;;6268467;28;20192;-63
2023/12/19 05:00:09;;;;;;;4.47;2.93;;;1.50;84.20;;;;;;6274650;28;20277;-63
2023/12/19 05:03:10;;;;;;;5.70;3.60;;;1.50;83.90;;;;;;6299597;28;20199;-63
2023/12/19 05:06:17;;;;;;;4.43;3.03;;;1.50;83.70;;;;;;6271116;28;20220;-63
2023/12/19 05:09:18;;;;;;;4.63;3.10;;;1.50;83.20;;;;;;6258950;28;20225;-63
2023/12/19 05:12:21;;;;;;;3.97;2.80;;;1.40;83.30;;;;;;6279843;28;20189;-63
2023/12/19 05:15:22;;;;;;;3.57;2.87;;;1.40;83.50;;;;;;6255799;28;20224;-63
2023/12/19 05:18:23;;;;;;;6.67;3.20;;;1.40;83.70;;;;;;6264996;28;20197;-64
2023/12/19 05:21:24;;;;;;;5.37;3.17;;;1.40;84.00;;;;;;6269600;28;20187;-64
2023/12/19 05:24:27;;;;;;;5.00;2.83;;;1.40;84.60;;;;;;6267020;28;20196;-63
2023/12/19 05:27:28;;;;;;;6.63;3.97;;;1.40;83.70;;;;;;6285334;28;20273;-63
2023/12/19 05:30:28;;;;;;;6.90;4.53;;;1.40;83.80;;;;;;6277256;28;20229;-63
2023/12/19 05:33:30;;;;;;;5.87;3.97;;;1.40;84.30;;;;;;6253137;28;20196;-63
2023/12/19 05:36:33;;;;;;;6.17;3.83;;;1.30;83.40;;;;;;6282360;28;20242;-63
2023/12/19 05:39:34;;;;;;;4.77;3.53;;;1.30;83.50;;;;;;6266453;28;20193;-63
2023/12/19 05:42:36;;;;;;;4.00;3.17;;;1.30;83.70;;;;;;6272639;28;20195;-63
2023/12/19 05:45:37;;;;;;;5.73;3.30;;;1.30;84.30;;;;;;6300488;28;20453;-63
2023/12/19 05:48:38;;;;;;;4.03;3.20;;;;;;;;;;6275811;28;20258;-63
2023/12/19 05:51:40;;;;;;;4.63;3.50;;;;;;;;;;6283749;28;20226;-63
2023/12/19 05:54:41;;;;;;;4.37;3.13;;;;;;;;;;6305017;28;20219;-63
2023/12/19 05:57:42;;;;;;;4.33;3.50;;;;;;;;;;6276309;28;20191;-63
2023/12/19 06:00:45;;;;;;;4.90;3.20;;;;;;;;;;6286904;28;20193;-63
2023/12/19 06:03:46;;;;;;;4.83;3.33;;;;;;;;;;6280607;28;20185;-63
2023/12/19 06:06:47;;;;;;;6.53;3.70;;;;;;;;;;6283813;28;20219;-63
2023/12/19 06:09:48;;;;;;;4.93;3.20;;;1.30;84.20;;;;;;6274342;28;20203;-63
2023/12/19 06:12:48;;;;;;;5.27;3.60;;;1.20;84.00;;;;;;6268113;28;20698;-63
2023/12/19 06:15:49;;;;;;;4.77;3.43;;;1.20;84.70;;;;;;6291342;28;20192;-63
2023/12/19 06:18:50;;;;;;;5.77;3.30;;;1.30;84.80;;;;;;6267976;28;20200;-63
2023/12/19 06:21:51;;;;;;;5.70;3.50;;;1.40;84.40;;;;;;6257879;28;20191;-63
2023/12/19 06:24:51;;;;;;;5.47;3.40;;;1.40;84.30;;;;;;6291977;28;20195;-63
2023/12/19 06:27:52;;;;;;;4.93;3.63;;;1.40;83.40;;;;;;6274206;28;20215;-63
2023/12/19 06:30:53;;;;;;;7.30;4.20;;;1.20;83.20;;;;;;6296293;28;20195;-63
2023/12/19 06:33:53;;;;;;;7.17;4.10;;;1.20;83.40;;;;;;6280511;28;20188;-63
2023/12/19 06:36:54;;;;;;;4.77;3.80;;;1.20;84.20;;;;;;6270892;28;20193;-63
2023/12/19 06:39:55;;;;;;;6.03;3.47;;;1.20;84.50;;;;;;6277571;28;20200;-63
2023/12/19 06:42:55;;;;;;;6.30;3.30;;;1.40;84.20;;;;;;6273222;28;20191;-63
2023/12/19 06:45:56;;;;;;;4.80;3.33;;;1.30;84.00;;;;;;6252804;28;20249;-63
2023/12/19 06:48:57;;;;;;;4.90;3.00;;;1.30;84.10;;;;;;6266456;28;20475;-63
2023/12/19 06:51:58;;;;;;;6.90;3.80;;;1.30;84.50;;;;;;6276759;28;20260;-63
2023/12/19 06:54:58;;;;;;;4.93;3.53;;;1.40;84.10;;;;;;6275984;28;20277;-63
2023/12/19 06:58:01;;;;;;;6.00;3.20;;;1.40;84.20;;;;;;6272025;28;20192;-63
2023/12/19 07:01:01;;;;;;;4.43;3.67;;;1.40;84.00;;;;;;6273679;28;20226;-63
2023/12/19 07:04:03;;;;;;;7.93;3.70;;;1.40;83.90;;;;;;6268321;28;20196;-63
2023/12/19 07:07:04;;;;;;;5.13;3.70;;;1.50;84.00;;;;;;6282323;28;20213;-63
2023/12/19 07:10:05;;;;;;;4.43;3.70;;;1.50;83.50;;;;;;6294849;28;20199;-63
2023/12/19 07:13:06;;;;;;;5.50;3.63;;;1.50;83.50;;;;;;6300904;28;20188;-63
2023/12/19 07:16:07;;;;;;;6.03;3.87;;;1.50;83.30;;;;;;6274092;28;20192;-63
2023/12/19 07:19:07;;;;;;;5.10;3.23;;;1.50;83.60;;;;;;6271613;28;20205;-63
2023/12/19 07:22:08;;;;;;;5.57;3.63;;;1.50;83.20;;;;;;6279172;28;20200;-63
2023/12/19 07:25:09;;;;;;;9.00;3.30;;;1.50;83.60;;;;;;6272082;28;20197;-63
2023/12/19 07:28:10;;;;;;;4.63;3.57;;;1.50;83.20;;;;;;6251806;28;20223;-63
2023/12/19 07:31:25;;;;;;;4.40;3.47;;;1.50;83.30;;;;;;6294270;28;20218;-63
2023/12/19 07:34:26;;;;;;;5.60;3.33;;;1.40;82.10;;;;;;6300342;28;20182;-63
2023/12/19 07:37:26;;;;;;;4.93;3.60;;;1.40;82.90;;;;;;6297187;28;20228;-63
2023/12/19 07:40:27;;;;;;;7.67;3.73;;;1.30;83.00;;;;;;6264120;28;20196;-63
2023/12/19 07:43:29;;;;;;;4.90;3.37;;;1.30;83.40;;;;;;6262727;28;20203;-63
2023/12/19 07:46:29;;;;;;;5.00;3.87;;;1.30;83.40;;;;;;6255845;28;20328;-63
2023/12/19 07:49:30;;;;;;;5.13;3.60;;;1.30;83.80;;;;;;6257819;28;20182;-63
2023/12/19 07:52:31;;;;;;;5.40;4.27;;;1.40;84.10;;;;;;6256649;28;20206;-63
2023/12/19 07:55:31;;;;;;;7.57;4.50;;;1.40;83.80;;;;;;6286868;28;20208;-63
2023/12/19 07:58:32;;;;;;;9.20;5.40;;;1.40;84.10;;;;;;6233355;28;20257;-63
2023/12/19 08:01:33;;;;;;;8.13;5.77;;;1.40;84.20;;;;;;6252996;28;20213;-63
2023/12/19 08:04:36;;;;;;;8.87;5.37;;;1.50;84.30;;;;;;6252621;28;20948;-63
2023/12/19 08:07:37;;;;;;;7.83;4.47;;;1.60;84.30;;;;;;6270013;28;20256;-63
2023/12/19 08:10:38;;;;;;;7.93;4.87;;;1.60;84.20;;;;;;6248811;28;20190;-63
2023/12/19 08:13:38;;;;;;;6.93;4.83;;;1.70;84.10;;;;;;6239476;28;20185;-63
2023/12/19 08:16:39;;;;;;;7.30;4.90;;;1.80;84.60;;;;;;6277662;28;20197;-63
2023/12/19 08:19:40;;;;;;;7.20;5.17;;;1.80;84.50;;;;;;6251000;28;20186;-63
2023/12/19 08:22:42;;;;;;;4.90;4.00;;;1.80;84.20;;;;;;6245480;28;20276;-63
2023/12/19 08:25:43;;;;;;;5.37;3.90;;;1.90;84.10;;;;;;6256370;28;20273;-63
2023/12/19 08:28:44;;;;;;;4.17;3.27;;;1.90;84.50;;;;;;6247692;28;20207;-63
2023/12/19 08:31:48;;;;;;;6.03;4.10;;;1.90;84.10;;;;;;6245973;28;20189;-63
2023/12/19 08:34:48;;;;;;;4.67;3.70;;;2.00;84.30;;;;;;6258218;28;20193;-63
2023/12/19 08:37:51;;;;;;;6.40;3.83;;;2.00;84.10;;;;;;6257602;28;20194;-63
2023/12/19 08:40:52;;;;;;;6.73;3.67;;;2.10;84.20;;;;;;6299457;28;20221;-63
2023/12/19 08:43:52;;;;;;;6.63;3.53;;;2.20;84.00;;;;;;6254928;28;20196;-63
2023/12/19 08:46:53;;;;;;;6.47;3.77;;;2.30;83.80;;;;;;6272666;28;20227;-63
2023/12/19 08:49:54;;;;;;;3.67;2.90;;;2.40;83.50;;;;;;6264576;28;20202;-63
2023/12/19 08:52:55;;;;;;;4.63;3.07;;;2.50;83.40;;;;;;6290035;28;20188;-63
2023/12/19 08:55:55;;;;;;;5.57;3.23;;;2.50;82.90;;;;;;6292061;28;20271;-63
2023/12/19 08:58:56;;;;;;;5.00;3.27;;;2.70;82.60;;;;;;6268420;28;20196;-63
2023/12/19 09:01:57;;;;;;;4.70;3.07;;;;;;;;;;6271787;28;20207;-62
2023/12/19 09:04:58;;;;;;;5.90;3.73;;;;;;;;;;6303798;28;20225;-62
2023/12/19 09:08:03;;;;;;;4.90;3.23;;;;;;;;;;6284330;28;20216;-62
2023/12/19 09:11:04;;;;;;;6.10;3.20;;;;;;;;;;6284930;28;20184;-62
2023/12/19 09:14:06;;;;;;;8.03;3.43;;;;;;;;;;6285361;28;20197;-62
2023/12/19 09:17:07;;;;;;;4.80;3.43;;;;;;;;;;6276163;28;20231;-63
2023/12/19 09:20:08;;;;;;;4.70;3.23;;;;;;;;;;6280181;28;20258;-63
2023/12/19 09:23:09;;;;;;;4.90;2.73;;;;;;;;;;6280763;28;20200;-63
2023/12/19 09:26:10;;;;;;;4.90;3.30;;;;;;;;;;6285963;28;20287;-62
2023/12/19 09:29:11;;;;;;;4.67;3.23;;;2.80;82.40;;;;;;6301289;28;20264;-63
2023/12/19 09:32:12;;;;;;;5.87;3.00;;;3.70;77.50;;;;;;6273988;28;20185;-62
2023/12/19 09:35:12;;;;;;;7.00;3.47;;;3.80;77.30;;;;;;6279649;28;20188;-62
2023/12/19 09:38:13;;;;;;;5.50;3.10;;;3.90;77.10;;;;;;6292973;28;20193;-63
2023/12/19 09:41:14;;;;;;;3.77;3.00;;;4.00;76.20;;;;;;6275843;28;20202;-62
2023/12/19 09:44:15;;;;;;;5.73;3.40;;;4.10;76.00;;;;;;6263878;28;20257;-62
2023/12/19 09:47:23;;;;;;;5.27;3.47;;;;;;;;;;6254319;28;20212;-63
2023/12/19 09:50:25;;;;;;;6.07;3.70;;;4.20;75.50;;;;;;6322333;28;20185;-63
2023/12/19 09:53:30;;;;;;;5.87;3.33;;;4.40;74.60;;;;;;6316154;28;20185;-62
2023/12/19 09:56:31;;;;;;;4.37;3.27;;;4.50;74.50;;;;;;6292738;28;20288;-63
2023/12/19 09:59:34;;;;;;;5.10;3.00;;;4.70;74.30;;;;;;6266633;28;20193;-63
2023/12/19 10:02:34;;;;;;;5.47;3.27;;;4.90;70.70;;;;;;6284154;28;20696;-62
2023/12/19 10:05:35;;;;;;;4.87;2.87;;;5.00;70.70;;;;;;6274989;28;20188;-63
2023/12/19 10:08:42;;;;;;;4.50;2.73;;;5.20;69.70;;;;;;6272624;28;20205;-62
2023/12/19 10:11:43;;;;;;;4.20;2.47;;;5.30;68.90;;;;;;6314041;28;20184;-62
2023/12/19 10:14:46;;;;;;;3.70;2.70;;;5.50;68.70;;;;;;6272763;28;20210;-62
2023/12/19 10:18:04;;;;;;;7.57;3.03;;;5.50;68.60;;;;;;6291427;28;20192;-62
2023/12/19 10:21:05;;;;;;;4.93;2.40;;;5.60;67.30;;;;;;6304582;28;20190;-62
2023/12/19 10:24:08;;;;;;;4.17;2.70;;;5.80;66.50;;;;;;6305965;28;20260;-62
2023/12/19 10:27:08;;;;;;;3.63;2.40;;;5.90;66.10;;;;;;6295935;28;20212;-62
2023/12/19 10:30:19;;;;;;;4.73;2.60;;;6.00;65.50;;;;;;6270679;28;20184;-62
2023/12/19 10:33:19;;;;;;;4.73;2.77;;;6.10;66.30;;;;;;6307835;28;20321;-62
2023/12/19 10:36:30;;;;;;;4.20;2.77;;;6.10;65.60;;;;;;6284273;28;20193;-62
2023/12/19 10:39:31;;;;;;;3.50;2.63;;;6.20;64.60;;;;;;6281310;28;20190;-62
2023/12/19 10:42:32;;;;;;;3.80;2.40;;;6.30;64.10;;;;;;6257660;28;20194;-62
2023/12/19 10:45:34;;;;;;;3.90;2.67;;;6.40;63.90;;;;;;6266647;28;20237;-62
2023/12/19 10:48:34;;;;;;;5.37;2.70;;;6.50;64.40;;;;;;6270903;28;20209;-62
2023/12/19 10:51:41;;;;;;;3.70;2.73;;;6.60;63.80;;;;;;6272138;28;20217;-62
2023/12/19 10:54:44;;;;;;;3.53;2.53;;;6.60;63.90;;;;;;6292132;28;20206;-62
2023/12/19 10:57:48;;;;;;;2.63;2.27;;;6.70;63.40;;;;;;6300238;28;20220;-62
2023/12/19 11:00:52;;;;;;;3.00;2.33;;;6.80;63.20;;;;;;6300752;28;20195;-62
2023/12/19 11:04:04;;;;;;;4.90;2.57;;;6.90;62.70;;;;;;6318005;28;20219;-62
2023/12/19 11:07:05;;;;;;;5.57;2.40;;;;;;;;;;6312175;28;20204;-62
2023/12/19 11:10:06;;;;;;;4.70;2.73;;;;;;;;;;6303026;28;20189;-62
2023/12/19 11:13:07;;;;;;;7.70;2.90;;;;;;;;;;6280524;28;20205;-62
2023/12/19 11:16:15;;;;;;;4.30;2.50;;;;;;;;;;6276607;28;20235;-62
2023/12/19 11:19:19;;;;;;;3.53;2.27;;;;;;;;;;6304252;28;20201;-62
2023/12/19 11:22:26;;;;;;;3.00;2.70;;;;;;;;;;6307438;28;20208;-62
2023/12/19 11:25:43;;;;;;;3.87;2.27;;;;;;;;;;6307533;28;20280;-62
2023/12/19 11:28:45;;;;;;;3.33;2.23;;;;;;;;;;6301475;28;20217;-62
2023/12/19 11:31:47;;;;;;;2.97;2.30;;;;;;;;;;6278345;28;20200;-62
2023/12/19 11:34:48;;;;;;;2.83;2.50;;;;;;;;;;6273622;28;20330;-62
2023/12/19 11:37:49;;;;;;;3.07;2.33;;;;;;;;;;6281529;28;20220;-62
2023/12/19 11:40:50;;;;;;;3.47;2.37;;;;;;;;;;6279544;28;20192;-62
2023/12/19 11:43:52;;;;;;;3.47;2.50;;;;;;;;;;6313684;28;20184;-62
2023/12/19 11:47:12;;;;;;;3.60;2.47;;;;;;;;;;6302691;28;20199;-62
2023/12/19 11:50:33;;;;;;;13.50;2.67;;;;;;;;;;6288384;28;20700;-62
2023/12/19 11:53:34;;;;;;;3.03;2.30;;;;;;;;;;6302516;28;20203;-62
2023/12/19 11:56:35;;;;;;;3.63;2.00;;;24.00;50.00;;;;;;6285650;28;20195;-62
2023/12/19 11:59:47;;;;;;;5.00;2.43;;;8.50;56.30;;;;;;6266756;28;20193;-62
2023/12/19 12:02:48;;;;;;;3.30;2.70;;;8.60;55.20;;;;;;6283603;28;20190;-63
2023/12/19 12:05:50;;;;;;;2.20;2.00;;;8.80;56.00;;;;;;6262078;28;20655;-62
2023/12/19 12:08:54;;;;;;;5.40;2.53;;;;;;;;;;6280009;28;20227;-62
2023/12/19 12:11:55;;;;;;;3.60;2.53;;;;;;;;;;6320292;28;20538;-63
2023/12/19 12:15:09;;;;;;;3.03;2.50;;;;;;;;;;6291619;28;20179;-63
2023/12/19 12:18:11;;;;;;;4.77;2.57;;;;;;;;;;6291874;28;20249;-62
2023/12/19 12:21:12;;;;;;;5.03;2.57;;;;;;;;;;6288387;28;20230;-62
2023/12/19 12:24:23;;;;;;;4.13;3.00;;;;;;;;;;6288918;28;20188;-62
2023/12/19 12:27:25;;;;;;;4.80;2.87;;;;;;;;;;6298883;28;20669;-62
2023/12/19 12:30:31;;;;;;;2.77;2.10;;;;;;;;;;6305799;28;20189;-62
2023/12/19 12:33:36;;;;;;;7.37;2.80;;;;;;;;;;6305358;28;20254;-62
2023/12/19 12:36:37;;;;;;;5.23;2.60;;;;;;;;;;6306037;28;20279;-62
2023/12/19 12:39:38;;;;;;;6.87;2.90;;;;;;;;;;6297795;28;20196;-62
2023/12/19 12:42:39;;;;;;;2.23;1.83;;;;;;;;;;6284152;28;20180;-62
2023/12/19 12:45:41;;;;;;;3.93;2.47;;;;;;;;;;6289290;28;20247;-62
2023/12/19 12:48:51;;;;;;;5.03;2.73;;;;;;;;;;6281490;28;20212;-62
2023/12/19 12:51:56;;;;;;;3.97;2.60;;;;;;;;;;6322142;28;20191;-62
2023/12/19 12:55:01;;;;;;;4.13;2.97;;;;;;;;;;6322314;28;20188;-62
2023/12/19 12:58:02;;;;;;;5.60;2.23;;;;;;;;;;6311878;28;20190;-62
2023/12/19 13:01:05;;;;;;;3.33;2.27;;;;;;;;;;6316308;28;20181;-62
2023/12/19 13:04:07;;;;;;;4.97;2.87;;;;;;;;;;6304174;28;20249;-61
2023/12/19 13:07:07;;;;;;;5.50;2.37;;;8.90;56.30;;;;;;6313642;28;20239;-62
2023/12/19 13:10:10;;;;;;;5.07;2.70;;;10.30;51.60;;;;;;6275453;28;20193;-62
2023/12/19 13:13:13;;;;;;;5.90;2.67;;;10.40;50.70;;;;;;6276532;28;20195;-62
2023/12/19 13:16:14;;;;;;;4.20;2.70;;;10.50;51.00;;;;;;6270527;28;20706;-62
2023/12/19 13:19:14;;;;;;;5.93;3.03;;;10.50;51.30;;;;;;6269606;28;20203;-62
2023/12/19 13:22:15;;;;;;;2.77;2.20;;;10.60;51.40;;;;;;6264866;28;20193;-62
2023/12/19 13:25:17;;;;;;;3.73;2.43;;;10.60;51.80;;;;;;6269811;28;20244;-62
2023/12/19 13:28:18;;;;;;;5.93;2.50;;;10.60;51.60;;;;;;6285565;28;20221;-62
2023/12/19 13:31:21;;;;;;;4.13;2.27;;;10.70;51.10;;;;;;6275796;28;20190;-62
2023/12/19 13:34:23;;;;;;;9.17;3.17;;;10.70;51.10;;;;;;6267898;28;20192;-62
2023/12/19 13:37:24;;;;;;;4.10;2.97;;;10.80;50.30;;;;;;6269071;28;20201;-62
2023/12/19 13:40:25;;;;;;;4.83;2.70;;;10.80;49.80;;;;;;6282411;28;20200;-62
2023/12/19 13:43:26;;;;;;;2.50;2.03;;;10.80;49.30;;;;;;6272118;28;20643;-62
2023/12/19 13:46:27;;;;;;;4.90;2.30;;;10.80;49.60;;;;;;6280350;28;20287;-62
2023/12/19 13:49:27;;;;;;;3.73;2.70;;;10.80;49.90;;;;;;6273554;28;20228;-62
2023/12/19 13:52:28;;;;;;;4.87;2.53;;;10.90;50.00;;;;;;6270069;28;20193;-62
2023/12/19 13:55:34;;;;;;;4.67;2.83;;;10.90;49.70;;;;;;6272912;28;20184;-62
2023/12/19 13:58:34;;;;;;;3.17;2.53;;;10.80;50.60;;;;;;6279234;28;20200;-62
2023/12/19 14:01:35;;;;;;;3.63;2.40;;;10.80;51.10;;;;;;6268693;28;20191;-62
2023/12/19 14:04:36;;;;;;;3.17;2.27;;;10.80;49.90;;;;;;6266111;28;20250;-62
2023/12/19 14:07:36;;;;;;;4.37;2.83;;;10.80;50.70;;;;;;6275741;28;20290;-62
2023/12/19 14:10:37;;;;;;;3.63;2.67;;;10.90;50.90;;;;;;6282106;28;20194;-62
2023/12/19 14:13:38;;;;;;;5.10;2.50;;;10.90;51.60;;;;;;6299079;28;20185;-62
2023/12/19 14:16:38;;;;;;;2.77;2.20;;;10.80;51.40;;;;;;6275345;28;20228;-62
2023/12/19 14:19:39;;;;;;;3.50;2.37;;;10.80;50.10;;;;;;6270374;28;20204;-62
2023/12/19 14:22:40;;;;;;;4.00;2.83;;;10.70;50.10;;;;;;6272389;28;20208;-62
2023/12/19 14:25:42;;;;;;;3.33;2.50;;;10.60;49.90;;;;;;6270682;28;20283;-62
2023/12/19 14:28:43;;;;;;;2.87;2.20;;;10.60;50.50;;;;;;6267177;28;20209;-62
2023/12/19 14:31:47;;;;;;;3.93;2.30;;;10.40;51.40;;;;;;6266891;28;20291;-62
2023/12/19 14:34:48;;;;;;;4.90;2.30;;;10.30;51.60;;;;;;6264545;28;20204;-62
2023/12/19 14:37:49;;;;;;;5.53;2.53;;;10.20;51.60;;;;;;6264544;28;20185;-62
2023/12/19 14:40:49;;;;;;;3.37;2.23;;;10.10;51.80;;;;;;6279522;28;20260;-62
2023/12/19 14:43:50;;;;;;;3.40;2.27;;;10.00;51.70;;;;;;6291669;28;20245;-62
2023/12/19 14:46:51;;;;;;;4.50;2.60;;;10.00;52.30;;;;;;6315659;28;20188;-62
2023/12/19 14:49:52;;;;;;;4.23;2.57;;;9.80;52.60;;;;;;6265889;28;20263;-62
2023/12/19 14:52:52;;;;;;;5.73;2.80;;;9.60;53.10;;;;;;6307317;28;20189;-62
2023/12/19 14:55:53;;;;;;;4.57;2.70;;;9.50;54.70;;;;;;6273014;28;20227;-62
2023/12/19 14:58:54;;;;;;;6.00;2.90;;;9.30;55.90;;;;;;6266629;28;20197;-62
2023/12/19 15:01:57;;;;;;;4.20;2.57;;;9.10;56.50;;;;;;6276024;28;20196;-62
2023/12/19 15:04:58;;;;;;;6.03;3.00;;;8.90;57.40;;;;;;6313836;28;20257;-62
2023/12/19 15:07:59;;;;;;;4.97;3.00;;;8.80;57.90;;;;;;6258429;28;20207;-62
2023/12/19 15:11:00;;;;;;;3.50;2.50;;;8.60;58.70;;;;;;6259728;28;20281;-61
2023/12/19 15:14:01;;;;;;;3.47;2.53;;;8.40;59.00;;;;;;6284611;28;20180;-62
2023/12/19 15:17:02;;;;;;;2.93;2.40;;;8.30;59.70;;;;;;6276435;28;20193;-64
2023/12/19 15:20:03;;;;;;;3.70;2.80;;;8.20;60.30;;;;;;6258740;28;20203;-63
2023/12/19 15:23:06;;;;;;;6.20;3.33;;;8.00;60.80;;;;;;6270367;28;20258;-62
2023/12/19 15:26:07;;;;;;;5.07;3.60;;;7.90;61.10;;;;;;6263830;28;20191;-63
2023/12/19 15:29:12;;;;;;;5.40;3.60;;;7.70;61.20;;;;;;6279494;28;20224;-64
2023/12/19 15:32:13;;;;;;;3.53;2.83;;;7.60;62.10;;;;;;6269563;28;20231;-62
2023/12/19 15:35:14;;;;;;;4.20;3.13;;;7.50;62.30;;;;;;6283539;28;20279;-62
2023/12/19 15:38:15;;;;;;;4.50;3.10;;;7.40;62.70;;;;;;6271172;28;20202;-62
2023/12/19 15:41:20;;;;;;;4.50;3.10;;;7.20;63.30;;;;;;6261125;28;20193;-62
2023/12/19 15:44:21;;;;;;;3.93;2.63;;;7.10;63.60;;;;;;6272819;28;20251;-62
2023/12/19 15:47:22;;;;;;;6.97;3.30;;;;;;;;;;6273894;28;20211;-62
2023/12/19 15:50:23;;;;;;;5.07;3.07;;;;;;;;;;6282958;28;20188;-61
2023/12/19 15:53:24;;;;;;;6.07;3.23;;;;;;;;;;6307037;28;20233;-62
2023/12/19 15:56:26;;;;;;;5.30;3.10;;;7.00;63.90;;;;;;6268026;28;20199;-62
2023/12/19 15:59:27;;;;;;;4.40;3.13;;;6.40;66.30;;;;;;6252295;28;20284;-62
2023/12/19 16:02:29;;;;;;;6.17;3.50;;;6.30;66.50;;;;;;6291251;28;20191;-62
2023/12/19 16:05:30;;;;;;;2.77;2.43;;;6.20;66.80;;;;;;6263387;28;20708;-62
2023/12/19 16:08:30;;;;;;;6.10;2.83;;;6.10;67.20;;;;;;6253244;28;20213;-62
2023/12/19 16:11:31;;;;;;;6.23;2.80;;;6.00;68.10;;;;;;6267951;28;20184;-62
2023/12/19 16:14:32;;;;;;;6.50;3.70;;;5.90;67.90;;;;;;6270186;28;20181;-62
2023/12/19 16:17:33;;;;;;;5.63;3.67;;;5.80;68.40;;;;;;6290630;28;20189;-62
2023/12/19 16:20:34;;;;;;;6.27;3.93;;;5.70;68.50;;;;;;6257119;28;20216;-62
2023/12/19 16:23:35;;;;;;;5.23;3.07;;;5.60;68.60;;;;;;6264551;28;20220;-62
2023/12/19 16:26:35;;;;;;;4.03;3.60;;;5.50;68.80;;;;;;6270395;28;20216;-62
2023/12/19 16:29:36;;;;;;;4.80;3.30;;;5.50;69.50;;;;;;6280315;28;20240;-62
2023/12/19 16:32:37;;;;;;;4.87;3.70;;;5.50;69.00;;;;;;6278910;28;20653;-61
2023/12/19 16:35:38;;;;;;;8.57;3.60;;;;;;;;;;6265871;28;20192;-62
2023/12/19 16:38:40;;;;;;;6.83;3.27;;;5.40;69.30;;;;;;6312569;28;20184;-62